Time;durP1;ratioP1;P1;durP2;ratioP2;P2;SDS_P1;SDS_P2;PMS_P1;PMS_P2;Temp;Humidity;BMP_temperature;BMP_pressure;BME280_temperature;BME280_humidity;BME280_pressure;Samples;Min_cycle;Max_cycle;Signal;HPM_P1;HPM_P2
2022/03/24 00:01:54;;;;;;;;;30.67;23.33;;;;;;;;5010510;28;8877;-78
2022/03/24 00:04:22;;;;;;;;;29.00;24.33;;;;;;;;5010281;28;8821;-77
2022/03/24 00:06:47;;;;;;;;;27.00;23.33;;;;;;;;5010395;28;8842;-78
2022/03/24 00:09:12;;;;;;;;;29.00;24.00;;;;;;;;5010353;28;8816;-78
2022/03/24 00:11:41;;;;;;;;;32.33;25.67;;;;;;;;5010293;28;8796;-77
2022/03/24 00:14:06;;;;;;;;;27.33;24.00;;;;;;;;5010421;28;8830;-77
2022/03/24 00:16:32;;;;;;;;;24.33;21.67;;;;;;;;5010381;28;8811;-77
2022/03/24 00:18:57;;;;;;;;;28.00;24.33;;;;;;;;4992680;28;8827;-78
2022/03/24 00:21:24;;;;;;;;;29.67;27.33;;;;;;;;5010380;28;8803;-77
2022/03/24 00:23:49;;;;;;;;;25.33;23.67;;;;;;;;5010154;28;8846;-77
2022/03/24 00:26:15;;;;;;;;;22.33;21.33;;;;;;;;5010295;28;8883;-78
2022/03/24 00:28:40;;;;;;;;;29.67;24.33;;;;;;;;5010269;28;8854;-78
2022/03/24 00:31:05;;;;;;;;;29.33;26.67;;;;;;;;5010075;28;8796;-78
2022/03/24 00:33:32;;;;;;;;;25.67;24.00;;;;;;;;5010128;28;8820;-77
2022/03/24 00:35:57;;;;;;;;;26.67;22.33;;;;;;;;5009755;28;8898;-77
2022/03/24 00:38:22;;;;;;;;;27.00;24.33;;;;;;;;5010004;28;9617;-78
2022/03/24 00:40:55;;;;;;;;;28.00;27.33;;;;;;;;5009993;28;8925;-79
2022/03/24 00:43:20;;;;;;;;;31.00;24.33;;;;;;;;5010250;28;8897;-79
2022/03/24 00:45:46;;;;;;;;;29.67;24.00;;;;;;;;5009894;28;8831;-79
2022/03/24 00:48:11;;;;;;;;;29.33;24.67;;;;;;;;5010372;28;8804;-79
2022/03/24 00:50:36;;;;;;;;;27.67;23.00;;;;;;;;5010377;28;8799;-79
2022/03/24 00:53:02;;;;;;;;;25.67;24.33;;;;;;;;5010266;28;9552;-79
2022/03/24 00:55:28;;;;;;;;;24.00;21.67;;;;;;;;5010591;28;8934;-79
2022/03/24 00:57:53;;;;;;;;;25.67;23.67;;;;;;;;5010743;28;8829;-79
2022/03/24 01:00:20;;;;;;;;;25.33;24.00;;;;;;;;5010426;28;8866;-79
2022/03/24 01:02:48;;;;;;;;;29.00;25.67;;;;;;;;5010719;28;8804;-79
2022/03/24 01:05:16;;;;;;;;;28.00;24.67;;;;;;;;4992733;28;9551;-78
2022/03/24 01:07:43;;;;;;;;;27.33;23.33;;;;;;;;5010412;28;8823;-79
2022/03/24 01:10:09;;;;;;;;;21.00;19.33;;;;;;;;5010494;28;8807;-78
2022/03/24 01:12:34;;;;;;;;;28.67;24.67;;;;;;;;5012018;28;8799;-78
2022/03/24 01:15:00;;;;;;;;;25.33;22.67;;;;;;;;5014060;28;8827;-80
2022/03/24 01:17:26;;;;;;;;;27.67;23.33;;;;;;;;5013865;28;8800;-80
2022/03/24 01:19:51;;;;;;;;;24.67;21.00;;;;;;;;5013679;28;8915;-79
2022/03/24 01:22:16;;;;;;;;;24.00;24.00;;;;;;;;4996525;28;8815;-80
2022/03/24 01:24:42;;;;;;;;;25.67;22.00;;;;;;;;5013460;28;8966;-79
2022/03/24 01:27:09;;;;;;;;;25.00;23.33;;;;;;;;5014031;28;8807;-80
2022/03/24 01:29:35;;;;;;;;;26.00;25.33;;;;;;;;4996097;28;8827;-79
2022/03/24 01:32:00;;;;;;;;;20.00;15.67;;;;;;;;4995950;28;8818;-79
2022/03/24 01:34:26;;;;;;;;;28.33;24.00;;;;;;;;5013626;28;8815;-79
2022/03/24 01:36:51;;;;;;;;;29.00;20.00;;;;;;;;4996339;28;8929;-79
2022/03/24 01:39:17;;;;;;;;;19.67;16.00;;;;;;;;5013786;28;8826;-80
2022/03/24 01:41:45;;;;;;;;;23.33;20.67;;;;;;;;5013752;28;8834;-80
2022/03/24 01:44:12;;;;;;;;;22.33;20.00;;;;;;;;5013680;28;9500;-80
2022/03/24 01:46:38;;;;;;;;;26.00;19.67;;;;;;;;5013564;28;9568;-79
2022/03/24 01:49:03;;;;;;;;;19.33;16.67;;;;;;;;5013556;28;8946;-80
2022/03/24 01:51:29;;;;;;;;;23.67;20.00;;;;;;;;4995878;28;8839;-79
2022/03/24 01:53:59;;;;;;;;;25.00;18.00;;;;;;;;5013280;28;8912;-81
2022/03/24 01:56:25;;;;;;;;;19.67;18.67;;;;;;;;5012961;28;8854;-81
2022/03/24 01:58:50;;;;;;;;;25.00;20.00;;;;;;;;5013064;28;8820;-80
2022/03/24 02:01:30;;;;;;;;;19.67;19.67;;;;;;;;5013292;28;8823;-79
2022/03/24 02:03:55;;;;;;;;;19.00;18.33;;;;;;;;5013002;28;8816;-79
2022/03/24 02:06:21;;;;;;;;;19.67;14.00;;;;;;;;5013315;28;8885;-79
2022/03/24 02:08:46;;;;;;;;;27.33;27.00;;;;;;;;4995363;28;8811;-79
2022/03/24 02:11:11;;;;;;;;;27.33;24.33;;;;;;;;4995224;28;8929;-79
2022/03/24 02:13:37;;;;;;;;;30.00;26.00;;;;;;;;5013028;28;9563;-79
2022/03/24 02:16:07;;;;;;;;;35.00;26.33;;;;;;;;5012651;28;8816;-79
2022/03/24 02:18:34;;;;;;;;;30.67;26.00;;;;;;;;5013073;28;8955;-80
2022/03/24 02:20:59;;;;;;;;;29.67;24.00;;;;;;;;5012707;28;8819;-79
2022/03/24 02:23:24;;;;;;;;;27.00;24.33;;;;;;;;5012661;28;10115;-80
2022/03/24 02:25:52;;;;;;;;;28.67;27.00;;;;;;;;5012357;28;8855;-79
2022/03/24 02:28:17;;;;;;;;;30.33;27.00;;;;;;;;5012892;28;8906;-80
2022/03/24 02:30:44;;;;;;;;;28.33;27.33;;;;;;;;5012567;28;8894;-80
2022/03/24 02:33:11;;;;;;;;;22.33;18.67;;;;;;;;5012679;28;8897;-80
2022/03/24 02:35:37;;;;;;;;;29.33;27.67;;;;;;;;5012619;28;8843;-80
2022/03/24 02:38:02;;;;;;;;;26.67;23.67;;;;;;;;5012406;28;8795;-80
2022/03/24 02:40:27;;;;;;;;;27.00;26.67;;;;;;;;5012978;28;8936;-80
2022/03/24 02:42:53;;;;;;;;;28.67;24.33;;;;;;;;4995085;28;8803;-79
2022/03/24 02:45:18;;;;;;;;;28.33;23.67;;;;;;;;5012382;28;8862;-79
2022/03/24 02:47:45;;;;;;;;;27.33;25.67;;;;;;;;5012287;28;8788;-80
2022/03/24 02:50:10;;;;;;;;;20.00;20.00;;;;;;;;5012422;28;8981;-80
2022/03/24 02:52:36;;;;;;;;;31.00;27.33;;;;;;;;4994936;28;8831;-79
2022/03/24 02:55:02;;;;;;;;;23.00;22.00;;;;;;;;5012747;28;8852;-79
2022/03/24 02:57:27;;;;;;;;;22.33;22.00;;;;;;;;5012180;28;9574;-80
2022/03/24 02:59:53;;;;;;;;;25.33;22.33;;;;;;;;5012790;28;8898;-80
2022/03/24 03:02:18;;;;;;;;;28.67;22.33;;;;;;;;5013487;28;8823;-80
2022/03/24 03:04:45;;;;;;;;;28.33;25.67;;;;;;;;5017250;28;8889;-81
2022/03/24 03:07:11;;;;;;;;;34.00;25.00;;;;;;;;5012767;28;8942;-80
2022/03/24 03:09:37;;;;;;;;;28.67;25.00;;;;;;;;5011779;28;8831;-79
2022/03/24 03:12:03;;;;;;;;;28.33;26.00;;;;;;;;5011786;28;8826;-80
2022/03/24 03:14:31;;;;;;;;;16.00;16.00;;;;;;;;5011886;28;8896;-79
2022/03/24 03:16:58;;;;;;;;;22.00;21.33;;;;;;;;5011641;28;8827;-80
2022/03/24 03:19:23;;;;;;;;;31.67;28.67;;;;;;;;5011622;28;8946;-79
2022/03/24 03:21:52;;;;;;;;;27.00;25.00;;;;;;;;5011500;28;8819;-79
2022/03/24 03:24:18;;;;;;;;;30.67;24.67;;;;;;;;4993535;28;8823;-79
2022/03/24 03:26:43;;;;;;;;;29.67;26.67;;;;;;;;5011029;28;8866;-79
2022/03/24 03:29:09;;;;;;;;;30.67;22.67;;;;;;;;5011400;28;8803;-79
2022/03/24 03:31:34;;;;;;;;;27.00;24.33;;;;;;;;5011259;28;8897;-79
2022/03/24 03:34:00;;;;;;;;;33.00;29.33;;;;;;;;5011282;28;8903;-79
2022/03/24 03:36:25;;;;;;;;;26.00;25.33;;;;;;;;5010651;28;8847;-78
2022/03/24 03:38:51;;;;;;;;;26.33;22.67;;;;;;;;5011061;28;8922;-79
2022/03/24 03:41:17;;;;;;;;;29.33;25.00;;;;;;;;4993307;28;8831;-79
2022/03/24 03:43:43;;;;;;;;;19.00;19.00;;;;;;;;5011136;28;8804;-78
2022/03/24 03:46:09;;;;;;;;;29.00;27.00;;;;;;;;5010911;28;8854;-79
2022/03/24 03:48:38;;;;;;;;;24.67;24.67;;;;;;;;5010862;28;8807;-79
2022/03/24 03:51:08;;;;;;;;;31.33;23.33;;;;;;;;5011029;28;8913;-79
2022/03/24 03:53:34;;;;;;;;;30.33;26.33;;;;;;;;5010965;28;8800;-78
2022/03/24 03:55:59;;;;;;;;;30.33;25.00;;;;;;;;5010707;28;9061;-79
2022/03/24 03:58:25;;;;;;;;;26.67;23.67;;;;;;;;5010913;28;8839;-79
2022/03/24 04:00:53;;;;;;;;;26.00;24.00;;;;;;;;5010865;28;8803;-80
2022/03/24 04:03:29;;;;;;;;;28.00;25.67;;;;;;;;4992994;28;8937;-80
2022/03/24 04:05:55;;;;;;;;;29.33;24.67;;;;;;;;5010632;28;8850;-80
2022/03/24 04:08:21;;;;;;;;;28.33;23.00;;;;;;;;5010759;28;8884;-79
2022/03/24 04:10:48;;;;;;;;;28.00;22.00;;;;;;;;4992956;28;8811;-80
2022/03/24 04:13:14;;;;;;;;;26.33;22.67;;;;;;;;5010573;28;8796;-80
2022/03/24 04:15:39;;;;;;;;;23.67;23.67;;;;;;;;5010487;28;8822;-80
2022/03/24 04:18:09;;;;;;;;;28.67;23.00;;;;;;;;5010744;28;9595;-80
2022/03/24 04:20:34;;;;;;;;;25.33;24.00;;;;;;;;5010490;28;8819;-79
2022/03/24 04:23:01;;;;;;;;;24.67;24.00;;;;;;;;4992928;28;8837;-81
2022/03/24 04:25:29;;;;;;;;;23.00;20.67;;;;;;;;5010564;28;8998;-81
2022/03/24 04:27:54;;;;;;;;;24.67;22.00;;;;;;;;5010581;28;8795;-79
2022/03/24 04:30:21;;;;;;;;;27.00;25.00;;;;;;;;5010649;28;8853;-81
2022/03/24 04:32:47;;;;;;;;;22.33;22.00;;;;;;;;5010519;28;8843;-80
2022/03/24 04:35:13;;;;;;;;;26.33;22.33;;;;;;;;5010663;28;8929;-80
2022/03/24 04:37:39;;;;;;;;;18.00;15.67;;;;;;;;5010372;28;9497;-80
2022/03/24 04:40:05;;;;;;;;;23.67;23.00;;;;;;;;5010553;28;8835;-79
2022/03/24 04:42:31;;;;;;;;;25.33;21.67;;;;;;;;5010400;28;8815;-80
2022/03/24 04:44:57;;;;;;;;;23.33;20.67;;;;;;;;5010587;28;8831;-80
2022/03/24 04:47:22;;;;;;;;;29.00;23.33;;;;;;;;5011845;28;8808;-80
2022/03/24 04:49:47;;;;;;;;;24.67;19.33;;;;;;;;5014118;28;8833;-80
2022/03/24 04:52:13;;;;;;;;;28.67;25.67;;;;;;;;4996653;28;8819;-80
2022/03/24 04:54:38;;;;;;;;;22.00;19.67;;;;;;;;5014152;28;8918;-80
2022/03/24 04:57:06;;;;;;;;;27.67;25.00;;;;;;;;5014115;28;8831;-80
2022/03/24 04:59:32;;;;;;;;;26.33;26.00;;;;;;;;5014338;28;8833;-79
2022/03/24 05:01:57;;;;;;;;;21.33;21.00;;;;;;;;5014565;28;8807;-79
2022/03/24 05:04:23;;;;;;;;;20.33;20.33;;;;;;;;5014101;28;8817;-79
2022/03/24 05:06:49;;;;;;;;;23.00;20.00;;;;;;;;5014856;28;8823;-79
2022/03/24 05:09:14;;;;;;;;;26.00;23.00;;;;;;;;5013600;28;8821;-75
2022/03/24 05:11:39;;;;;;;;;23.00;22.00;;;;;;;;4994865;28;8811;-74
2022/03/24 05:14:05;;;;;;;;;26.33;24.33;;;;;;;;5012630;28;8983;-77
2022/03/24 05:16:30;;;;;;;;;24.00;23.33;;;;;;;;5012404;28;8864;-76
2022/03/24 05:18:56;;;;;;;;;23.33;23.33;;;;;;;;4994936;28;8812;-78
2022/03/24 05:21:21;;;;;;;;;27.00;22.00;;;;;;;;5012670;28;8809;-79
2022/03/24 05:23:47;;;;;;;;;21.67;21.67;;;;;;;;5012409;28;8777;-80
2022/03/24 05:26:12;;;;;;;;;30.00;22.00;;;;;;;;5012506;28;9077;-77
2022/03/24 05:28:37;;;;;;;;;26.33;25.00;;;;;;;;4994799;28;8848;-78
2022/03/24 05:31:03;;;;;;;;;27.33;23.00;;;;;;;;4994265;28;8859;-77
2022/03/24 05:33:28;;;;;;;;;30.67;26.67;;;;;;;;4994166;28;9528;-78
2022/03/24 06:53:39;;;;;;;;;30.00;28.00;;;;;;;;5057723;27;3011246;-76
2022/03/24 06:56:05;;;;;;;;;36.00;28.50;;;;;;;;5149725;27;8794;-76
2022/03/24 06:58:30;;;;;;;;;33.00;31.50;;;;;;;;5145448;27;8849;-76
2022/03/24 07:00:56;;;;;;;;;30.50;28.25;;;;;;;;5149383;27;8872;-76
2022/03/24 07:03:21;;;;;;;;;33.75;29.25;;;;;;;;5149006;27;8860;-76
2022/03/24 07:05:46;;;;;;;;;37.25;32.25;;;;;;;;5147732;27;8821;-76
2022/03/24 07:08:11;;;;;;;;;37.50;36.25;;;;;;;;5149054;27;8774;-76
2022/03/24 07:10:37;;;;;;;;;36.25;33.75;;;;;;;;5149818;27;8770;-79
2022/03/24 07:13:02;;;;;;;;;37.50;34.25;;;;;;;;5149164;27;8828;-78
2022/03/24 07:15:28;;;;;;;;;35.00;29.00;;;;;;;;5129735;27;8798;-78
2022/03/24 07:17:53;;;;;;;;;36.00;31.25;;;;;;;;5148606;27;8903;-78
2022/03/24 07:20:19;;;;;;;;;38.25;37.00;;;;;;;;5148854;27;8778;-78
2022/03/24 07:22:45;;;;;;;;;31.00;30.50;;;;;;;;5149006;27;8821;-75
2022/03/24 07:25:11;;;;;;;;;39.75;34.75;;;;;;;;5149417;27;8785;-79
2022/03/24 07:27:37;;;;;;;;;43.25;39.00;;;;;;;;5149565;27;8773;-77
2022/03/24 07:30:03;;;;;;;;;47.00;40.50;;;;;;;;5149731;27;8869;-77
2022/03/24 07:32:29;;;;;;;;;49.00;38.50;;;;;;;;5146487;27;8817;-76
2022/03/24 07:34:54;;;;;;;;;43.25;35.50;;;;;;;;5119689;27;8802;-76
2022/03/24 07:37:20;;;;;;;;;45.75;39.00;;;;;;;;5139745;27;8800;-76
2022/03/24 07:39:45;;;;;;;;;41.33;35.67;;;;;;;;5138080;27;8795;-77
2022/03/24 07:42:10;;;;;;;;;34.67;32.67;;;;;;;;5138718;27;8812;-76
2022/03/24 07:44:35;;;;;;;;;42.00;36.67;;;;;;;;5120619;27;8806;-74
2022/03/24 07:47:01;;;;;;;;;40.33;36.33;;;;;;;;5136653;27;8790;-72
2022/03/24 07:49:26;;;;;;;;;41.00;37.25;;;;;;;;5138151;27;8805;-72
2022/03/24 07:51:51;;;;;;;;;43.25;36.50;;;;;;;;5136030;27;8971;-75
2022/03/24 07:54:30;;;;;;;;;37.67;33.33;;;;;;;;5139444;27;8889;-72
2022/03/24 07:56:55;;;;;;;;;42.00;38.00;;;;;;;;5118626;27;8849;-72
2022/03/24 07:59:21;;;;;;;;;46.75;38.75;;;;;;;;5136018;27;8770;-73
2022/03/24 08:01:46;;;;;;;;;44.50;38.75;;;;;;;;5137575;27;8782;-72
2022/03/24 08:04:11;;;;;;;;;45.67;39.00;;;;;;;;5125772;27;8783;-73
2022/03/24 08:06:38;;;;;;;;;40.33;34.67;;;;;;;;5122779;27;8820;-73
2022/03/24 08:09:04;;;;;;;;;43.67;38.67;;;;;;;;5123707;27;9578;-75
2022/03/24 08:11:30;;;;;;;;;37.33;36.67;;;;;;;;5102939;27;8822;-72
2022/03/24 08:13:56;;;;;;;;;53.50;43.50;;;;;;;;5123327;27;8929;-73
2022/03/24 08:16:22;;;;;;;;;45.75;38.25;;;;;;;;5122836;27;8819;-74
2022/03/24 08:18:48;;;;;;;;;36.67;33.67;;;;;;;;5122398;27;8826;-73
2022/03/24 08:21:13;;;;;;;;;47.00;38.33;;;;;;;;5123587;27;8789;-74
2022/03/24 08:23:38;;;;;;;;;43.00;40.00;;;;;;;;5123892;27;8780;-73
2022/03/24 08:26:04;;;;;;;;;44.67;38.00;;;;;;;;5121758;27;8774;-73
2022/03/24 23:03:08;;;;;;;;;31.00;29.67;;;;;;;;5035502;27;1386369;-79
2022/03/24 23:05:37;;;;;;;;;25.00;24.33;;;;;;;;5067802;28;8810;-82
2022/03/24 23:08:04;;;;;;;;;29.33;28.67;;;;;;;;5049971;28;8833;-82
2022/03/24 23:10:29;;;;;;;;;27.33;24.00;;;;;;;;5049951;28;8919;-81
2022/03/24 23:12:55;;;;;;;;;1.00;0.00;;;;;;;;5068236;28;8830;-81
2022/03/24 23:15:20;;;;;;;;;29.33;25.67;;;;;;;;5068524;28;8840;-82
2022/03/24 23:17:46;;;;;;;;;32.67;28.00;;;;;;;;5050571;28;8922;-81
2022/03/24 23:20:14;;;;;;;;;37.00;29.00;;;;;;;;5050507;28;8814;-81
2022/03/24 23:22:40;;;;;;;;;28.33;25.33;;;;;;;;5068911;28;8961;-81
2022/03/24 23:25:06;;;;;;;;;29.00;23.67;;;;;;;;5050508;28;8814;-81
2022/03/24 23:27:32;;;;;;;;;27.33;26.00;;;;;;;;5068503;28;8802;-81
2022/03/24 23:29:57;;;;;;;;;26.00;23.00;;;;;;;;5068278;28;11570;-80
2022/03/24 23:32:24;;;;;;;;;30.33;27.00;;;;;;;;5068251;28;8856;-81
2022/03/24 23:34:49;;;;;;;;;26.00;22.33;;;;;;;;5067985;28;8830;-81
2022/03/24 23:37:14;;;;;;;;;33.33;22.33;;;;;;;;5067926;28;11644;-81
2022/03/24 23:39:39;;;;;;;;;33.00;26.33;;;;;;;;5067634;28;8798;-81
2022/03/24 23:42:05;;;;;;;;;26.67;25.00;;;;;;;;5067825;28;8819;-81
2022/03/24 23:44:30;;;;;;;;;25.67;25.00;;;;;;;;5067594;28;8799;-80
2022/03/24 23:46:55;;;;;;;;;28.33;28.00;;;;;;;;5067770;28;8798;-81
2022/03/24 23:49:21;;;;;;;;;19.33;19.33;;;;;;;;5067855;28;8803;-81
2022/03/24 23:51:46;;;;;;;;;30.00;26.00;;;;;;;;5068137;28;8798;-81
2022/03/24 23:54:11;;;;;;;;;29.00;25.00;;;;;;;;5067306;28;8841;-80
2022/03/24 23:56:37;;;;;;;;;24.67;22.67;;;;;;;;5050119;28;8818;-80
2022/03/24 23:59:02;;;;;;;;;27.33;24.00;;;;;;;;5067661;28;8802;-80
